createdAt,value
2018-12-24T00:00:19.656Z,99.40
2018-12-24T00:01:19.643Z,99.09
2018-12-24T00:02:19.631Z,98.99
2018-12-24T00:03:19.657Z,98.88
2018-12-24T00:04:19.611Z,99.09
2018-12-24T00:05:19.601Z,98.78
2018-12-24T00:06:19.596Z,98.99
2018-12-24T00:07:19.581Z,99.30
2018-12-24T00:08:19.600Z,99.19
2018-12-24T00:09:19.579Z,98.99
2018-12-24T00:10:19.571Z,98.99
2018-12-24T00:11:19.534Z,99.09
2018-12-24T00:12:19.534Z,99.30
2018-12-24T00:13:19.518Z,99.40
2018-12-24T00:14:19.540Z,99.40
2018-12-24T00:15:19.488Z,99.71
2018-12-24T00:16:19.482Z,99.71
2018-12-24T00:17:19.467Z,99.51
2018-12-24T00:18:19.460Z,99.82
2018-12-24T00:19:19.505Z,99.71
2018-12-24T00:20:19.436Z,99.30
2018-12-24T00:21:19.423Z,99.09
2018-12-24T00:22:19.431Z,99.71
2018-12-24T00:23:19.402Z,99.61
2018-12-24T00:24:19.427Z,99.71
2018-12-24T00:25:19.379Z,99.19
2018-12-24T00:26:19.393Z,99.96
2018-12-24T00:27:19.360Z,99.92
2018-12-24T00:28:19.350Z,99.40
2018-12-24T00:29:19.360Z,99.92
2018-12-24T00:30:19.326Z,99.92
2018-12-24T00:31:19.315Z,99.71
2018-12-24T00:32:19.338Z,99.99
2018-12-24T00:33:19.291Z,99.96
2018-12-24T00:34:19.283Z,99.82
2018-12-24T00:35:19.292Z,99.99
2018-12-24T00:36:19.260Z,99.71
2018-12-24T00:37:19.247Z,99.82
2018-12-24T00:38:19.239Z,99.92
2018-12-24T00:39:19.229Z,99.99
2018-12-24T00:40:19.237Z,99.71
2018-12-24T00:41:19.228Z,99.92
2018-12-24T00:42:19.196Z,99.99
2018-12-24T00:43:19.185Z,99.99
2018-12-24T00:44:19.176Z,99.99
2018-12-24T00:45:19.182Z,99.99
2018-12-24T00:46:19.148Z,99.99
2018-12-24T00:47:19.143Z,99.99
2018-12-24T00:48:19.125Z,99.99
2018-12-24T00:49:19.153Z,99.99
2018-12-24T00:50:19.107Z,99.99
2018-12-24T00:51:19.091Z,99.99
2018-12-24T00:52:19.086Z,99.99
2018-12-24T00:53:19.089Z,99.99
2018-12-24T00:54:19.087Z,99.99
2018-12-24T00:55:19.054Z,99.99
2018-12-24T00:56:20.095Z,99.99
2018-12-24T00:57:19.030Z,99.99
2018-12-24T00:58:19.018Z,99.99
2018-12-24T00:59:19.014Z,99.99
2018-12-24T01:00:18.991Z,99.99
2018-12-24T01:01:19.015Z,99.99
2018-12-24T01:02:18.984Z,99.99
2018-12-24T01:03:18.982Z,99.99
2018-12-24T01:04:18.948Z,99.99
2018-12-24T01:05:18.961Z,99.99
2018-12-24T01:06:18.926Z,99.99
2018-12-24T01:07:18.941Z,99.99
2018-12-24T01:08:18.968Z,99.99
2018-12-24T01:09:18.907Z,99.99
2018-12-24T01:10:18.890Z,99.99
2018-12-24T01:11:18.915Z,99.99
2018-12-24T01:12:24.591Z,99.99
2018-12-24T01:13:19.854Z,99.99
2018-12-24T01:14:18.848Z,99.99
2018-12-24T01:15:18.826Z,99.99
2018-12-24T01:16:18.845Z,99.99
2018-12-24T01:17:18.813Z,99.99
2018-12-24T01:18:18.796Z,99.99
2018-12-24T01:19:18.782Z,99.99
2018-12-24T01:20:18.773Z,99.99
2018-12-24T01:21:18.800Z,99.99
2018-12-24T01:22:18.766Z,99.99
2018-12-24T01:23:18.739Z,99.99
2018-12-24T01:24:18.733Z,99.99
2018-12-24T01:25:18.715Z,99.99
2018-12-24T01:26:18.728Z,99.99
2018-12-24T01:27:18.700Z,99.99
2018-12-24T01:28:18.722Z,99.99
2018-12-24T01:29:18.673Z,99.99
2018-12-24T01:30:18.674Z,99.99
2018-12-24T01:31:18.678Z,99.99
2018-12-24T01:32:18.637Z,99.99
2018-12-24T01:33:18.638Z,99.99
2018-12-24T01:34:18.620Z,99.99
2018-12-24T01:35:18.665Z,99.99
2018-12-24T01:36:18.604Z,99.99
2018-12-24T01:37:18.583Z,99.99
2018-12-24T01:38:18.584Z,99.99
2018-12-24T01:39:18.574Z,99.99
2018-12-24T01:40:18.596Z,99.99
2018-12-24T01:41:18.541Z,99.99
2018-12-24T01:42:18.541Z,99.99
2018-12-24T01:43:18.541Z,99.99
2018-12-24T01:44:18.511Z,99.99
2018-12-24T01:45:18.497Z,99.99
2018-12-24T01:46:18.491Z,99.99
2018-12-24T01:47:18.499Z,99.99
2018-12-24T01:48:18.476Z,99.99
2018-12-24T01:49:18.460Z,99.99
2018-12-24T01:50:18.443Z,99.99
2018-12-24T01:51:18.875Z,99.99
2018-12-24T01:52:18.418Z,99.99
2018-12-24T01:53:18.406Z,99.99
2018-12-24T01:54:18.426Z,99.99
2018-12-24T01:55:18.387Z,99.99
2018-12-24T01:56:18.372Z,99.99
2018-12-24T01:57:18.360Z,99.99
2018-12-24T01:58:18.372Z,99.99
2018-12-24T01:59:18.344Z,99.99
2018-12-24T02:00:18.355Z,99.99
2018-12-24T02:01:18.326Z,99.99
2018-12-24T02:02:18.322Z,99.99
2018-12-24T02:03:18.299Z,99.99
2018-12-24T02:04:18.288Z,99.99
2018-12-24T02:05:18.323Z,99.99
2018-12-24T02:06:18.262Z,99.99
2018-12-24T02:07:18.254Z,99.99
2018-12-24T02:08:18.246Z,99.99
2018-12-24T02:09:18.240Z,99.99
2018-12-24T02:10:18.242Z,99.99
2018-12-24T02:11:18.213Z,99.99
2018-12-24T02:12:18.199Z,99.99
2018-12-24T02:13:18.218Z,99.99
2018-12-24T02:14:18.176Z,99.99
2018-12-24T02:15:18.179Z,99.99
2018-12-24T02:16:18.153Z,99.99
2018-12-24T02:17:18.140Z,99.99
2018-12-24T02:18:18.146Z,99.99
2018-12-24T02:19:18.234Z,99.99
2018-12-24T02:20:18.114Z,99.99
2018-12-24T02:21:18.098Z,99.99
2018-12-24T02:22:18.097Z,99.99
2018-12-24T02:23:18.076Z,99.99
2018-12-24T02:24:18.085Z,99.99
2018-12-24T02:25:18.051Z,99.99
2018-12-24T02:26:18.044Z,99.99
2018-12-24T02:27:18.031Z,99.99
2018-12-24T02:28:18.022Z,99.99
2018-12-24T02:29:18.033Z,99.99
2018-12-24T02:30:18.000Z,99.99
2018-12-24T02:31:18.009Z,99.99
2018-12-24T02:32:17.989Z,99.99
2018-12-24T02:33:18.016Z,99.99
2018-12-24T02:34:18.001Z,99.99
2018-12-24T02:35:17.944Z,99.99
2018-12-24T02:36:17.934Z,99.99
2018-12-24T02:37:17.921Z,99.99
2018-12-24T02:38:17.921Z,99.99
2018-12-24T02:39:17.937Z,99.99
2018-12-24T02:40:17.887Z,99.99
2018-12-24T02:41:17.873Z,99.99
2018-12-24T02:42:17.866Z,99.99
2018-12-24T02:43:17.855Z,99.99
2018-12-24T02:44:17.864Z,99.99
2018-12-24T02:45:17.838Z,99.99
2018-12-24T02:46:17.822Z,99.99
2018-12-24T02:47:17.814Z,99.99
2018-12-24T02:48:17.801Z,99.99
2018-12-24T02:49:17.831Z,99.99
2018-12-24T02:50:17.787Z,99.99
2018-12-24T02:51:17.776Z,99.99
2018-12-24T02:52:17.760Z,99.99
2018-12-24T02:53:17.746Z,99.99
2018-12-24T02:54:17.860Z,99.99
2018-12-24T02:55:17.731Z,99.99
2018-12-24T02:56:17.709Z,99.99
2018-12-24T02:57:17.704Z,99.99
2018-12-24T02:58:17.724Z,99.99
2018-12-24T02:59:17.708Z,99.99
2018-12-24T03:00:17.667Z,99.99
2018-12-24T03:01:17.698Z,99.99
2018-12-24T03:02:17.645Z,99.99
2018-12-24T03:03:17.653Z,99.99
2018-12-24T03:04:17.692Z,99.99
2018-12-24T03:05:17.613Z,99.99
2018-12-24T03:06:17.649Z,99.99
2018-12-24T03:07:17.612Z,99.99
2018-12-24T03:08:17.615Z,99.99
2018-12-24T03:09:17.569Z,99.99
2018-12-24T03:10:17.558Z,99.99
2018-12-24T03:11:17.569Z,99.99
2018-12-24T03:12:17.554Z,99.99
2018-12-24T03:13:17.541Z,99.99
2018-12-24T03:14:17.511Z,99.99
2018-12-24T03:15:17.550Z,99.99
2018-12-24T03:16:17.488Z,99.99
2018-12-24T03:17:17.496Z,99.99
2018-12-24T03:18:17.475Z,99.99
2018-12-24T03:19:17.471Z,99.99
2018-12-24T03:20:17.483Z,99.99
2018-12-24T03:21:17.441Z,99.99
2018-12-24T03:22:17.423Z,99.99
2018-12-24T03:23:17.435Z,99.99
2018-12-24T03:24:17.403Z,99.99
2018-12-24T03:25:17.390Z,99.99
2018-12-24T03:26:17.384Z,99.99
2018-12-24T03:27:17.374Z,99.99
2018-12-24T03:28:17.392Z,99.99
2018-12-24T03:29:17.358Z,99.99
2018-12-24T03:30:17.355Z,99.99
2018-12-24T03:31:17.446Z,99.99
2018-12-24T03:32:17.318Z,99.99
2018-12-24T03:33:17.363Z,99.99
2018-12-24T03:34:17.290Z,99.99
2018-12-24T03:35:17.281Z,99.99
2018-12-24T03:36:17.315Z,99.99
2018-12-24T03:37:17.260Z,99.99
2018-12-24T03:38:17.252Z,99.99
2018-12-24T03:39:17.236Z,99.99
2018-12-24T03:40:17.226Z,99.99
2018-12-24T03:41:17.230Z,99.99
2018-12-24T03:42:17.212Z,99.99
2018-12-24T03:43:17.227Z,99.99
2018-12-24T03:44:17.183Z,99.99
2018-12-24T03:45:17.169Z,99.99
2018-12-24T03:46:17.159Z,99.99
2018-12-24T03:47:17.151Z,99.99
2018-12-24T03:48:17.161Z,99.99
2018-12-24T03:49:17.157Z,99.99
2018-12-24T03:50:17.120Z,99.99
2018-12-24T03:51:17.112Z,99.99
2018-12-24T03:52:17.117Z,99.99
2018-12-24T03:53:17.088Z,99.99
2018-12-24T03:54:17.070Z,99.99
2018-12-24T03:55:17.062Z,99.99
2018-12-24T03:56:17.054Z,99.99
2018-12-24T03:57:17.073Z,99.99
2018-12-24T03:58:17.052Z,99.99
2018-12-24T03:59:17.042Z,99.99
2018-12-24T04:00:17.009Z,99.99
2018-12-24T04:01:16.992Z,99.99
2018-12-24T04:02:17.010Z,99.99
2018-12-24T04:03:16.973Z,99.99
2018-12-24T04:04:17.071Z,99.99
2018-12-24T04:05:16.960Z,99.99
2018-12-24T04:06:16.973Z,99.99
2018-12-24T04:07:16.926Z,99.99
2018-12-24T04:08:16.916Z,99.99
2018-12-24T04:09:16.906Z,99.99
2018-12-24T04:10:16.937Z,99.99
2018-12-24T04:11:16.890Z,99.68
2018-12-24T04:12:16.872Z,99.52
2018-12-24T04:13:22.517Z,99.52
2018-12-24T04:14:17.855Z,99.01
2018-12-24T04:15:16.861Z,98.28
2018-12-24T04:16:16.861Z,97.77
2018-12-24T04:17:16.824Z,98.08
2018-12-24T04:18:16.807Z,98.18
2018-12-24T04:19:16.827Z,97.77
2018-12-24T04:20:16.785Z,97.77
2018-12-24T04:21:16.859Z,97.66
2018-12-24T04:22:16.790Z,97.45
2018-12-24T04:23:16.788Z,97.25
2018-12-24T04:24:16.747Z,97.35
2018-12-24T04:25:16.752Z,97.14
2018-12-24T04:26:16.754Z,97.56
2018-12-24T04:27:16.734Z,97.77
2018-12-24T04:28:16.715Z,97.66
2018-12-24T04:29:16.813Z,97.56
2018-12-24T04:30:16.675Z,97.56
2018-12-24T04:31:16.684Z,97.66
2018-12-24T04:32:16.652Z,97.60
2018-12-24T04:33:16.678Z,97.81
2018-12-24T04:34:16.647Z,97.81
2018-12-24T04:35:16.644Z,97.35
2018-12-24T04:36:16.607Z,97.35
2018-12-24T04:37:16.598Z,97.81
2018-12-24T04:38:16.636Z,97.77
2018-12-24T04:39:16.574Z,97.56
2018-12-24T04:40:16.574Z,97.91
2018-12-24T04:41:16.555Z,97.77
2018-12-24T04:42:16.613Z,97.81
2018-12-24T04:43:16.531Z,97.81
2018-12-24T04:44:16.520Z,97.77
2018-12-24T04:45:16.519Z,97.29
2018-12-24T04:46:16.515Z,97.39
2018-12-24T04:47:16.523Z,97.81
2018-12-24T04:48:16.488Z,97.60
2018-12-24T04:49:16.502Z,97.81
2018-12-24T04:50:16.530Z,97.81
2018-12-24T04:51:16.516Z,97.91
2018-12-24T04:52:16.448Z,97.29
2018-12-24T04:53:16.456Z,97.19
2018-12-24T04:54:16.433Z,96.98
2018-12-24T04:55:16.406Z,97.09
2018-12-24T04:56:16.410Z,96.98
2018-12-24T04:57:16.418Z,96.98
2018-12-24T04:58:16.415Z,97.09
2018-12-24T04:59:16.361Z,97.19
2018-12-24T05:00:16.343Z,97.03
2018-12-24T05:01:16.379Z,97.44
2018-12-24T05:02:16.383Z,97.24
2018-12-24T05:03:16.370Z,97.24
2018-12-24T05:04:16.305Z,96.92
2018-12-24T05:05:16.361Z,96.92
2018-12-24T05:06:16.287Z,96.82
2018-12-24T05:07:16.351Z,96.41
2018-12-24T05:08:16.285Z,96.72
2018-12-24T05:09:16.292Z,96.92
2018-12-24T05:10:16.255Z,96.41
2018-12-24T05:11:16.239Z,96.51
2018-12-24T05:12:16.275Z,96.82
2018-12-24T05:13:16.226Z,96.92
2018-12-24T05:14:16.192Z,96.92
2018-12-24T05:15:16.182Z,96.57
2018-12-24T05:16:16.222Z,96.41
2018-12-24T05:17:16.184Z,97.03
2018-12-24T05:18:16.160Z,96.82
2018-12-24T05:19:16.241Z,97.09
2018-12-24T05:20:16.130Z,96.88
2018-12-24T05:21:16.117Z,97.34
2018-12-24T05:22:16.112Z,97.13
2018-12-24T05:23:16.120Z,97.13
2018-12-24T05:24:16.195Z,97.24
2018-12-24T05:25:16.170Z,97.34
2018-12-24T05:26:16.067Z,97.24
2018-12-24T05:27:16.058Z,97.24
2018-12-24T05:28:16.067Z,97.86
2018-12-24T05:29:16.084Z,97.96
2018-12-24T05:30:16.012Z,97.96
2018-12-24T05:31:16.028Z,97.96
2018-12-24T05:32:16.019Z,97.96
2018-12-24T05:33:15.980Z,97.91
2018-12-24T05:34:15.972Z,97.86
2018-12-24T05:35:15.958Z,97.09
2018-12-24T05:36:15.955Z,97.44
2018-12-24T05:37:15.973Z,97.44
2018-12-24T05:38:15.935Z,97.55
2018-12-24T05:39:15.940Z,97.19
2018-12-24T05:40:15.938Z,96.92
2018-12-24T05:41:15.916Z,96.72
2018-12-24T05:42:15.881Z,96.57
2018-12-24T05:43:15.903Z,96.72
2018-12-24T05:44:15.870Z,95.84
2018-12-24T05:45:15.900Z,95.53
2018-12-24T05:46:15.853Z,95.95
2018-12-24T05:47:16.344Z,96.05
2018-12-24T05:48:15.815Z,96.36
2018-12-24T05:49:15.805Z,95.99
2018-12-24T05:50:15.811Z,96.47
2018-12-24T05:51:15.786Z,96.78
2018-12-24T05:52:15.798Z,96.67
2018-12-24T05:53:15.758Z,96.82
2018-12-24T05:54:15.753Z,96.98
2018-12-24T05:55:15.748Z,96.67
2018-12-24T05:56:15.735Z,96.82
2018-12-24T05:57:15.741Z,96.92
2018-12-24T05:58:15.707Z,97.13
2018-12-24T05:59:15.693Z,96.72
2018-12-24T06:00:15.693Z,96.82
2018-12-24T06:01:15.685Z,96.41
2018-12-24T06:02:15.686Z,96.92
2018-12-24T06:03:15.651Z,97.24
2018-12-24T06:04:15.688Z,97.13
2018-12-24T06:05:15.639Z,97.03
2018-12-24T06:06:15.618Z,97.28
2018-12-24T06:07:15.605Z,97.34
2018-12-24T06:08:15.614Z,97.24
2018-12-24T06:09:15.606Z,96.86
2018-12-24T06:10:15.573Z,96.97
2018-12-24T06:11:15.561Z,97.38
2018-12-24T06:12:15.581Z,97.13
2018-12-24T06:13:15.573Z,97.49
2018-12-24T06:14:15.528Z,97.28
2018-12-24T06:15:15.520Z,97.17
2018-12-24T06:16:15.533Z,97.28
2018-12-24T06:17:15.534Z,97.38
2018-12-24T06:18:15.509Z,97.28
2018-12-24T06:19:15.478Z,97.59
2018-12-24T06:20:15.486Z,97.49
2018-12-24T06:21:15.504Z,97.17
2018-12-24T06:22:15.439Z,97.69
2018-12-24T06:23:15.428Z,97.38
2018-12-24T06:24:15.421Z,97.80
2018-12-24T06:25:15.423Z,97.86
2018-12-24T06:26:15.430Z,98.00
2018-12-24T06:27:15.390Z,98.21
2018-12-24T06:28:15.376Z,98.00
2018-12-24T06:29:15.363Z,97.90
2018-12-24T06:30:15.359Z,97.69
2018-12-24T06:31:15.368Z,97.90
2018-12-24T06:32:15.366Z,97.59
2018-12-24T06:33:15.378Z,98.52
2018-12-24T06:34:15.349Z,98.21
2018-12-24T06:35:15.300Z,98.21
2018-12-24T06:36:15.302Z,98.11
2018-12-24T06:37:15.307Z,98.32
2018-12-24T06:38:15.264Z,98.52
2018-12-24T06:39:15.290Z,98.21
2018-12-24T06:40:15.255Z,98.11
2018-12-24T06:41:15.230Z,98.21
2018-12-24T06:42:15.235Z,98.21
2018-12-24T06:43:15.229Z,98.21
2018-12-24T06:44:15.212Z,98.21
2018-12-24T06:45:15.194Z,98.00
2018-12-24T06:46:15.174Z,98.21
2018-12-24T06:47:15.169Z,98.32
2018-12-24T06:48:15.183Z,98.73
2018-12-24T06:49:15.166Z,98.52
2018-12-24T06:50:15.835Z,98.94
2018-12-24T06:51:15.125Z,98.63
2018-12-24T06:52:15.137Z,98.63
2018-12-24T06:53:15.105Z,98.42
2018-12-24T06:54:15.097Z,99.56
2018-12-24T06:55:15.125Z,98.63
2018-12-24T06:56:15.114Z,98.11
2018-12-24T06:57:15.054Z,98.00
2018-12-24T06:58:15.100Z,98.21
2018-12-24T06:59:15.037Z,97.90
2018-12-24T07:00:15.043Z,97.38
2018-12-24T07:01:15.153Z,98.21
2018-12-24T07:02:15.019Z,97.86
2018-12-24T07:03:15.037Z,97.65
2018-12-24T07:04:14.978Z,97.24
2018-12-24T07:05:14.969Z,97.38
2018-12-24T07:06:14.993Z,97.65
2018-12-24T07:07:15.018Z,97.28
2018-12-24T07:08:15.046Z,98.00
2018-12-24T07:09:14.935Z,97.69
2018-12-24T07:10:14.910Z,97.28
2018-12-24T07:11:14.923Z,97.75
2018-12-24T07:12:14.918Z,98.11
2018-12-24T07:13:14.920Z,98.11
2018-12-24T07:14:15.494Z,97.90
2018-12-24T07:15:14.866Z,97.38
2018-12-24T07:16:14.884Z,97.38
2018-12-24T07:17:14.860Z,97.17
2018-12-24T07:18:14.829Z,97.38
2018-12-24T07:19:14.814Z,97.07
2018-12-24T07:20:14.824Z,97.02
2018-12-24T07:21:14.813Z,96.76
2018-12-24T07:22:14.779Z,97.17
2018-12-24T07:23:14.793Z,96.81
2018-12-24T07:24:14.806Z,97.02
2018-12-24T07:25:14.745Z,96.70
2018-12-24T07:26:14.776Z,95.87
2018-12-24T07:27:14.724Z,95.72
2018-12-24T07:28:14.763Z,95.77
2018-12-24T07:29:14.733Z,95.87
2018-12-24T07:30:14.735Z,95.87
2018-12-24T07:31:14.704Z,96.03
2018-12-24T07:32:14.669Z,96.08
2018-12-24T07:33:14.690Z,96.70
2018-12-24T07:34:14.681Z,96.70
2018-12-24T07:35:14.638Z,97.02
2018-12-24T07:36:14.625Z,95.98
2018-12-24T07:37:14.620Z,95.67
2018-12-24T07:38:14.657Z,95.25
2018-12-24T07:39:14.590Z,95.36
2018-12-24T07:40:14.622Z,95.67
2018-12-24T07:41:14.612Z,95.98
2018-12-24T07:42:14.577Z,96.19
2018-12-24T07:43:14.567Z,95.98
2018-12-24T07:44:14.576Z,96.81
2018-12-24T07:45:14.554Z,96.75
2018-12-24T07:46:14.526Z,97.02
2018-12-24T07:47:14.534Z,96.95
2018-12-24T07:48:14.497Z,96.50
2018-12-24T07:49:14.483Z,97.02
2018-12-24T07:50:14.471Z,96.70
2018-12-24T07:51:14.482Z,96.70
2018-12-24T07:52:14.472Z,97.02
2018-12-24T07:53:14.444Z,96.91
2018-12-24T07:54:14.481Z,97.06
2018-12-24T07:55:14.415Z,96.85
2018-12-24T07:56:14.425Z,96.75
2018-12-24T07:57:14.403Z,96.54
2018-12-24T07:58:14.406Z,96.95
2018-12-24T07:59:14.401Z,96.95
2018-12-24T08:00:14.362Z,97.16
2018-12-24T08:01:14.356Z,97.27
2018-12-24T08:02:14.361Z,97.37
2018-12-24T08:03:14.388Z,97.37
2018-12-24T08:04:14.331Z,97.37
2018-12-24T08:05:14.307Z,97.37
2018-12-24T08:06:14.299Z,97.58
2018-12-24T08:07:14.309Z,97.16
2018-12-24T08:08:14.298Z,97.47
2018-12-24T08:09:14.311Z,97.78
2018-12-24T08:10:14.250Z,97.99
2018-12-24T08:11:14.237Z,98.20
2018-12-24T08:12:14.244Z,97.78
2018-12-24T08:13:14.219Z,98.30
2018-12-24T08:14:14.205Z,98.61
2018-12-24T08:15:14.205Z,98.41
2018-12-24T08:16:14.213Z,98.30
2018-12-24T08:17:14.216Z,98.41
2018-12-24T08:18:14.164Z,98.30
2018-12-24T08:19:14.160Z,98.72
2018-12-24T08:20:14.138Z,98.72
2018-12-24T08:21:14.151Z,98.51
2018-12-24T08:22:14.117Z,99.34
2018-12-24T08:23:14.105Z,99.13
2018-12-24T08:24:14.100Z,99.24
2018-12-24T08:25:14.103Z,98.93
2018-12-24T08:26:14.102Z,99.24
2018-12-24T08:27:14.089Z,98.93
2018-12-24T08:28:14.053Z,99.34
2018-12-24T08:29:14.062Z,99.13
2018-12-24T08:30:14.054Z,99.44
2018-12-24T08:31:14.017Z,98.82
2018-12-24T08:32:14.015Z,99.44
2018-12-24T08:33:14.006Z,99.44
2018-12-24T08:34:13.997Z,99.24
2018-12-24T08:35:13.999Z,99.13
2018-12-24T08:36:13.980Z,99.44
2018-12-24T08:37:13.955Z,98.72
2018-12-24T08:38:15.731Z,98.93
2018-12-24T08:39:13.958Z,98.93
2018-12-24T08:40:13.957Z,98.72
2018-12-24T08:41:13.908Z,98.72
2018-12-24T08:42:13.904Z,97.99
2018-12-24T08:43:13.886Z,98.10
2018-12-24T08:44:13.883Z,98.05
2018-12-24T08:45:13.901Z,98.30
2018-12-24T08:46:13.852Z,98.82
2018-12-24T08:47:13.841Z,98.78
2018-12-24T08:48:13.829Z,98.72
2018-12-24T08:49:13.819Z,98.68
2018-12-24T08:50:13.838Z,98.88
2018-12-24T08:51:13.822Z,98.99
2018-12-24T08:52:13.802Z,98.88
2018-12-24T08:53:13.789Z,98.88
2018-12-24T08:54:13.777Z,98.78
2018-12-24T08:55:13.760Z,99.09
2018-12-24T08:56:14.657Z,99.19
2018-12-24T08:57:13.923Z,99.19
2018-12-24T08:58:13.730Z,99.51
2018-12-24T08:59:13.710Z,99.40
2018-12-24T09:00:13.703Z,98.99
2018-12-24T09:01:13.688Z,99.09
2018-12-24T09:02:13.703Z,98.78
2018-12-24T09:03:13.741Z,99.30
2018-12-24T09:04:13.685Z,99.99
2018-12-24T09:05:13.647Z,99.61
2018-12-24T09:06:13.654Z,99.61
2018-12-24T09:07:13.771Z,99.99
2018-12-24T09:08:13.629Z,98.99
2018-12-24T09:09:13.623Z,98.30
2018-12-24T09:10:13.590Z,98.20
2018-12-24T09:11:13.681Z,97.33
2018-12-24T09:12:13.569Z,97.37
2018-12-24T09:13:13.693Z,96.81
2018-12-24T09:14:13.562Z,97.06
2018-12-24T09:15:13.536Z,97.27
2018-12-24T09:16:13.521Z,96.70
2018-12-24T09:17:13.622Z,96.64
2018-12-24T09:18:13.504Z,96.02
2018-12-24T09:19:13.504Z,95.40
2018-12-24T09:20:13.511Z,95.81
2018-12-24T09:21:13.468Z,95.40
2018-12-24T09:22:13.551Z,95.71
2018-12-24T09:23:13.447Z,96.12
2018-12-24T09:24:13.463Z,95.92
2018-12-24T09:25:13.451Z,95.50
2018-12-24T09:26:13.410Z,95.96
2018-12-24T09:27:13.494Z,95.29
2018-12-24T09:28:13.390Z,94.09
2018-12-24T09:29:13.406Z,93.57
2018-12-24T09:30:13.413Z,93.99
2018-12-24T09:31:13.390Z,94.40
2018-12-24T09:32:13.437Z,93.78
2018-12-24T09:33:13.462Z,93.78
2018-12-24T09:34:13.332Z,93.88
2018-12-24T09:35:13.400Z,94.09
2018-12-24T09:36:13.357Z,93.88
2018-12-24T09:37:13.309Z,93.68
2018-12-24T09:38:13.294Z,94.20
2018-12-24T09:39:13.274Z,94.30
2018-12-24T09:40:13.273Z,94.61
2018-12-24T09:41:13.254Z,94.30
2018-12-24T09:42:13.320Z,94.51
2018-12-24T09:43:13.239Z,94.20
2018-12-24T09:44:13.251Z,94.82
2018-12-24T09:45:13.225Z,94.13
2018-12-24T09:46:13.217Z,93.82
2018-12-24T09:47:13.194Z,94.20
2018-12-24T09:48:13.176Z,94.40
2018-12-24T09:49:13.158Z,94.20
2018-12-24T09:50:13.343Z,93.51
2018-12-24T09:51:13.135Z,93.37
2018-12-24T09:52:13.131Z,93.05
2018-12-24T09:53:13.112Z,93.51
2018-12-24T09:54:13.221Z,93.26
2018-12-24T09:55:13.124Z,92.74
2018-12-24T09:56:13.136Z,93.37
2018-12-24T09:57:13.069Z,94.13
2018-12-24T09:58:13.058Z,92.26
2018-12-24T09:59:13.057Z,91.74
2018-12-24T10:00:13.059Z,92.36
2018-12-24T10:01:13.060Z,91.80
2018-12-24T10:02:13.041Z,92.05
2018-12-24T10:03:13.018Z,91.74
2018-12-24T10:04:13.120Z,92.05
2018-12-24T10:05:13.009Z,93.78
2018-12-24T10:06:13.079Z,92.22
2018-12-24T10:07:12.959Z,91.43
2018-12-24T10:08:13.001Z,92.36
2018-12-24T10:09:12.942Z,93.37
2018-12-24T10:10:13.053Z,93.05
2018-12-24T10:11:13.027Z,92.84
2018-12-24T10:12:12.947Z,93.47
2018-12-24T10:13:12.898Z,93.47
2018-12-24T10:14:13.017Z,93.05
2018-12-24T10:15:12.879Z,93.88
2018-12-24T10:16:12.893Z,93.26
2018-12-24T10:17:12.857Z,92.22
2018-12-24T10:18:12.895Z,92.94
2018-12-24T10:19:12.842Z,92.84
2018-12-24T10:20:12.875Z,93.37
2018-12-24T10:21:12.823Z,93.10
2018-12-24T10:22:12.818Z,92.99
2018-12-24T10:23:12.794Z,93.57
2018-12-24T10:24:12.790Z,93.88
2018-12-24T10:25:12.817Z,93.47
2018-12-24T10:26:12.809Z,93.78
2018-12-24T10:27:12.749Z,93.88
2018-12-24T10:28:12.756Z,92.84
2018-12-24T10:29:12.730Z,92.94
2018-12-24T10:30:12.781Z,92.94
2018-12-24T10:31:12.709Z,92.53
2018-12-24T10:32:12.700Z,92.32
2018-12-24T10:33:12.707Z,92.94
2018-12-24T10:34:12.674Z,92.57
2018-12-24T10:35:12.752Z,92.32
2018-12-24T10:36:12.651Z,92.88
2018-12-24T10:37:12.633Z,91.85
2018-12-24T10:38:12.700Z,91.95
2018-12-24T10:39:12.668Z,91.95
2018-12-24T10:40:12.612Z,91.95
2018-12-24T10:41:12.602Z,93.62
2018-12-24T10:42:12.572Z,93.20
2018-12-24T10:43:12.596Z,94.03
2018-12-24T10:44:12.553Z,94.13
2018-12-24T10:45:16.503Z,93.72
2018-12-24T10:46:12.600Z,93.41
2018-12-24T10:47:12.549Z,93.51
2018-12-24T10:48:12.512Z,92.99
2018-12-24T10:49:12.641Z,93.14
2018-12-24T10:50:12.484Z,93.45
2018-12-24T10:51:12.481Z,93.30
2018-12-24T10:52:12.496Z,93.66
2018-12-24T10:53:12.451Z,93.51
2018-12-24T10:54:12.458Z,93.30
2018-12-24T10:55:12.432Z,93.82
2018-12-24T10:56:12.450Z,94.18
2018-12-24T10:57:12.438Z,93.72
2018-12-24T10:58:12.404Z,93.97
2018-12-24T10:59:12.428Z,94.07
2018-12-24T11:00:12.375Z,94.24
2018-12-24T11:01:12.389Z,94.24
2018-12-24T11:02:12.410Z,94.13
2018-12-24T11:03:12.372Z,94.13
2018-12-24T11:04:12.346Z,94.55
2018-12-24T11:05:12.347Z,94.34
2018-12-24T11:06:12.308Z,94.24
2018-12-24T11:07:12.301Z,93.87
2018-12-24T11:08:12.301Z,94.65
2018-12-24T11:09:12.282Z,94.18
2018-12-24T11:10:12.290Z,94.55
2018-12-24T11:11:12.262Z,94.03
2018-12-24T11:12:12.408Z,93.51
2018-12-24T11:13:12.231Z,93.82
2018-12-24T11:14:12.222Z,93.10
2018-12-24T11:15:12.244Z,92.99
2018-12-24T11:16:12.236Z,93.55
2018-12-24T11:17:12.186Z,93.55
2018-12-24T11:18:12.327Z,93.45
2018-12-24T11:19:12.166Z,93.80
2018-12-24T11:20:12.158Z,94.07
2018-12-24T11:21:12.171Z,94.18
2018-12-24T11:22:12.150Z,94.01
2018-12-24T11:23:12.163Z,94.18
2018-12-24T11:24:12.111Z,94.59
2018-12-24T11:25:12.156Z,94.53
2018-12-24T11:26:12.086Z,93.80
2018-12-24T11:27:12.186Z,93.80
2018-12-24T11:28:12.100Z,93.07
2018-12-24T11:29:12.054Z,93.43
2018-12-24T11:30:12.047Z,93.64
2018-12-24T11:31:12.031Z,93.85
2018-12-24T11:32:12.054Z,93.85
2018-12-24T11:33:12.167Z,94.72
2018-12-24T11:34:12.001Z,94.51
2018-12-24T11:35:11.997Z,94.31
2018-12-24T11:36:11.991Z,95.14
2018-12-24T11:37:12.008Z,95.14
2018-12-24T11:38:11.981Z,95.09
2018-12-24T11:39:11.989Z,94.99
2018-12-24T11:40:11.933Z,94.37
2018-12-24T11:41:11.922Z,94.62
2018-12-24T11:42:11.973Z,95.14
2018-12-24T11:43:11.925Z,95.14
2018-12-24T11:44:11.925Z,94.99
2018-12-24T11:45:11.876Z,95.93
2018-12-24T11:46:11.869Z,95.93
2018-12-24T11:47:11.884Z,94.99
2018-12-24T11:48:11.875Z,95.51
2018-12-24T11:49:11.861Z,94.89
2018-12-24T11:50:11.934Z,94.99
2018-12-24T11:51:11.872Z,94.99
2018-12-24T11:52:11.804Z,94.99
2018-12-24T11:53:11.803Z,96.14
2018-12-24T11:54:11.781Z,95.09
2018-12-24T11:55:11.796Z,94.99
2018-12-24T11:56:11.796Z,94.10
2018-12-24T11:57:11.745Z,94.47
2018-12-24T11:58:13.317Z,95.40
2018-12-24T11:59:11.754Z,95.30
2018-12-24T12:00:11.712Z,94.89
2018-12-24T12:01:11.732Z,95.25
2018-12-24T12:02:11.695Z,94.20
2018-12-24T12:03:12.778Z,94.68
2018-12-24T12:04:11.710Z,94.93
2018-12-24T12:05:11.752Z,94.89
2018-12-24T12:06:19.532Z,95.30
2018-12-24T12:07:12.659Z,94.47
2018-12-24T12:08:11.653Z,94.06
2018-12-24T12:09:11.614Z,93.54
2018-12-24T12:10:11.694Z,93.01
2018-12-24T12:11:11.616Z,93.95
2018-12-24T12:12:11.602Z,93.33
2018-12-24T12:13:11.577Z,93.74
2018-12-24T12:14:11.669Z,93.74
2018-12-24T12:15:13.044Z,93.85
2018-12-24T12:16:11.534Z,93.39
2018-12-24T12:17:11.579Z,93.12
2018-12-24T12:18:11.513Z,92.60
2018-12-24T12:19:11.538Z,92.70
2018-12-24T12:20:11.493Z,92.49
2018-12-24T12:21:11.482Z,92.70
2018-12-24T12:22:11.542Z,92.91
2018-12-24T12:23:11.476Z,92.49
2018-12-24T12:24:11.485Z,91.35
2018-12-24T12:25:11.533Z,90.93
2018-12-24T12:26:11.428Z,90.83
2018-12-24T12:27:11.576Z,91.35
2018-12-24T12:28:11.407Z,91.35
2018-12-24T12:29:11.476Z,91.35
2018-12-24T12:30:11.405Z,91.66
2018-12-24T12:31:11.395Z,91.04
2018-12-24T12:32:11.458Z,91.56
2018-12-24T12:33:11.586Z,91.93
2018-12-24T12:34:11.380Z,91.52
2018-12-24T12:35:11.328Z,91.20
2018-12-24T12:36:11.318Z,90.89
2018-12-24T12:37:11.333Z,90.26
2018-12-24T12:38:11.293Z,89.58
2018-12-24T12:39:11.312Z,89.43
2018-12-24T12:40:11.418Z,90.79
2018-12-24T12:41:11.259Z,90.00
2018-12-24T12:42:11.411Z,89.58
2018-12-24T12:43:11.262Z,89.89
2018-12-24T12:44:11.308Z,91.25
2018-12-24T12:45:11.217Z,90.72
2018-12-24T12:46:11.207Z,91.25
2018-12-24T12:47:11.197Z,89.79
2018-12-24T12:48:11.200Z,88.96
2018-12-24T12:49:11.190Z,89.00
2018-12-24T12:50:11.165Z,88.96
2018-12-24T12:51:11.172Z,89.48
2018-12-24T12:52:11.147Z,89.37